Orbital elements of COSMOS 970
| Launched | 20 December 1977 |
| Flight ended | – |
| Launch site | Tyuratam Missile and Space Center, Kazakhstan (Also known as Baikonur Cosmodrome) |
| Owner | Commonwealth of Independent States (former USSR) |
| NORAD ID | 10531 |
| Date fetched |
Epoch osculation |
Inc. [°] |
Ecc. | RA asc node [hr] |
Arg Peri. [°] |
Mean anom [°] |
Mean motion [rev/day] |
Abs. mag |
| Date fetched |
Epoch osculation |
Inc. [°] |
Ecc. | RA asc node [hr] |
Arg Peri. [°] |
Mean anom [°] |
Mean motion [rev/day] |
Abs. mag |
| 2026 May 03 17:57 | 2026 Apr 30 14:10:51 | 65.8528 | 0.01510 | 18.3462 | 223.8525 | 135.0460 | 13.59866 | 6.243 |
| 2026 May 02 17:57 | 2026 Apr 30 14:10:51 | 65.8528 | 0.01510 | 18.3462 | 223.8525 | 135.0460 | 13.59866 | 6.243 |
| 2026 May 01 17:56 | 2026 Apr 30 14:10:51 | 65.8528 | 0.01510 | 18.3462 | 223.8525 | 135.0460 | 13.59866 | 6.243 |
| 2026 Apr 30 17:56 | 2026 Apr 30 14:10:51 | 65.8528 | 0.01510 | 18.3462 | 223.8525 | 135.0460 | 13.59866 | 6.243 |
| 2026 Apr 29 17:57 | 2026 Apr 24 11:40:52 | 65.8527 | 0.01514 | 19.3257 | 226.6675 | 135.0460 | 13.59866 | 6.243 |
| 2026 Apr 28 17:56 | 2026 Apr 24 11:40:52 | 65.8527 | 0.01514 | 19.3257 | 226.6675 | 135.0460 | 13.59866 | 6.243 |
| 2026 Apr 27 17:58 | 2026 Apr 24 11:40:52 | 65.8527 | 0.01514 | 19.3257 | 226.6675 | 135.0460 | 13.59866 | 6.243 |
| 2026 Apr 26 17:58 | 2026 Apr 24 11:40:52 | 65.8527 | 0.01514 | 19.3257 | 226.6675 | 135.0460 | 13.59866 | 6.243 |
| 2026 Apr 25 17:58 | 2026 Apr 24 11:40:52 | 65.8527 | 0.01514 | 19.3257 | 226.6675 | 135.0460 | 13.59866 | 6.243 |
| 2026 Apr 24 17:59 | 2026 Apr 24 11:40:52 | 65.8527 | 0.01514 | 19.3257 | 226.6675 | 135.0460 | 13.59866 | 6.243 |
| 2026 Apr 23 17:57 | 2026 Apr 19 06:21:43 | 65.8530 | 0.01516 | 20.1636 | 229.0804 | 135.0460 | 13.59866 | 6.243 |
| 2026 Apr 22 17:57 | 2026 Apr 19 06:21:43 | 65.8530 | 0.01516 | 20.1636 | 229.0804 | 135.0460 | 13.59866 | 6.243 |
| 2026 Apr 21 17:57 | 2026 Apr 19 06:21:43 | 65.8530 | 0.01516 | 20.1636 | 229.0804 | 135.0460 | 13.59866 | 6.243 |
| 2026 Apr 20 17:57 | 2026 Apr 19 06:21:43 | 65.8530 | 0.01516 | 20.1636 | 229.0804 | 135.0460 | 13.59866 | 6.243 |
| 2026 Apr 19 17:58 | 2026 Apr 19 06:21:43 | 65.8530 | 0.01516 | 20.1636 | 229.0804 | 135.0460 | 13.59866 | 6.243 |
| 2026 Apr 18 17:56 | 2026 Apr 13 00:19:56 | 65.8538 | 0.01520 | 21.1666 | 231.9532 | 135.0460 | 13.59866 | 6.243 |
| 2026 Apr 16 17:57 | 2026 Apr 13 00:19:56 | 65.8538 | 0.01520 | 21.1666 | 231.9532 | 135.0460 | 13.59866 | 6.243 |
| 2026 Apr 14 17:57 | 2026 Apr 13 00:19:56 | 65.8538 | 0.01520 | 21.1666 | 231.9532 | 135.0460 | 13.59866 | 6.243 |
| 2026 Apr 13 17:57 | 2026 Apr 13 00:19:56 | 65.8538 | 0.01520 | 21.1666 | 231.9532 | 135.0460 | 13.59866 | 6.243 |
| 2026 Apr 12 17:57 | 2026 Apr 08 14:25:43 | 65.8547 | 0.01522 | 21.8747 | 233.9796 | 135.0460 | 13.59866 | 6.243 |
| 2026 Apr 11 17:57 | 2026 Apr 08 14:25:43 | 65.8547 | 0.01522 | 21.8747 | 233.9796 | 135.0460 | 13.59866 | 6.243 |
| 2026 Apr 10 17:58 | 2026 Apr 08 14:25:43 | 65.8547 | 0.01522 | 21.8747 | 233.9796 | 135.0460 | 13.59866 | 6.243 |
| 2026 Apr 09 18:01 | 2026 Apr 08 14:25:43 | 65.8547 | 0.01522 | 21.8747 | 233.9796 | 135.0460 | 13.59866 | 6.243 |
| 2026 Apr 08 17:57 | 2026 Apr 08 14:25:43 | 65.8547 | 0.01522 | 21.8747 | 233.9796 | 135.0460 | 13.59866 | 6.243 |
| 2026 Apr 07 17:57 | 2026 Apr 02 03:06:13 | 65.8558 | 0.01525 | 22.9131 | 236.9469 | 135.0460 | 13.59866 | 6.243 |
| 2026 Apr 06 17:57 | 2026 Apr 02 03:06:13 | 65.8558 | 0.01525 | 22.9131 | 236.9469 | 135.0460 | 13.59866 | 6.243 |